Time;durP1;ratioP1;P1;durP2;ratioP2;P2;SDS_P1;SDS_P2;PMS_P1;PMS_P2;Temp;Humidity;BMP_temperature;BMP_pressure;BME280_temperature;BME280_humidity;BME280_pressure;Samples;Min_cycle;Max_cycle;Signal;HPM_P1;HPM_P2
2022/01/20 00:01:10;;;;;;;;;30.67;26.00;;;;;9.36;69.78;102385.78;4981159;28;45373;-71
2022/01/20 00:03:37;;;;;;;;;30.00;27.33;;;;;9.41;69.80;102405.81;4999046;28;45496;-73
2022/01/20 00:27:36;;;;;;;;;29.33;25.00;;;;;9.30;70.08;102450.75;4997970;28;45890;-71
2022/01/20 00:38:21;;;;;;;;;24.67;20.33;;;;;9.14;70.04;102410.16;4996855;28;46702;-71
2022/01/20 00:40:47;;;;;;;;;30.67;28.00;;;;;9.16;69.87;102413.56;4996894;28;45356;-72
2022/01/20 00:43:13;;;;;;;;;22.67;17.67;;;;;9.15;69.82;102409.22;4997202;28;46065;-71
2022/01/20 00:45:38;;;;;;;;;29.00;27.00;;;;;9.01;70.25;102395.94;4979963;28;45293;-71
2022/01/20 00:48:04;;;;;;;;;22.33;20.67;;;;;8.98;69.97;102398.75;4996805;28;46553;-72
2022/01/20 00:50:29;;;;;;;;;28.67;25.33;;;;;8.83;70.08;102385.50;4996888;28;45461;-71
2022/01/20 00:52:54;;;;;;;;;24.33;23.00;;;;;8.97;69.96;102420.94;4975652;28;45497;-71
2022/01/20 00:55:20;;;;;;;;;25.67;22.67;;;;;8.93;70.32;102408.81;4960028;28;45229;-71
2022/01/20 00:57:45;;;;;;;;;25.67;24.00;;;;;8.88;69.77;102400.28;4976744;28;46227;-71
2022/01/20 01:00:13;;;;;;;;;25.33;24.00;;;;;8.96;69.93;102416.59;4977053;28;45220;-70
2022/01/20 01:02:40;;;;;;;;;24.33;19.33;;;;;8.66;69.57;102360.94;4959530;28;45363;-70
2022/01/20 01:05:08;;;;;;;;;28.33;24.33;;;;;8.76;69.77;102400.06;4959422;28;45448;-70
2022/01/20 01:07:54;;;;;;;;;22.33;19.33;;;;;8.72;70.08;102395.03;4975530;28;48509;-71
2022/01/20 01:10:23;;;;;;;;;29.00;22.33;;;;;8.56;69.84;102387.13;4994288;28;45366;-71
2022/01/20 01:15:26;;;;;;;;;24.67;18.33;;;;;8.03;69.58;102324.88;4996759;28;45371;-72
2022/01/20 01:24:45;;;;;;;;;20.00;18.67;;;;;8.30;69.76;102407.19;5074102;27;45419;-71
2022/01/20 01:27:12;;;;;;;;;26.67;18.00;;;;;8.40;69.41;102421.63;5074260;27;45324;-71
2022/01/20 01:32:28;;;;;;;;;19.33;16.00;;;;;8.47;69.12;102448.66;5073800;27;45202;-71
2022/01/20 01:34:54;;;;;;;;;21.33;19.00;;;;;8.45;69.14;102450.56;5073738;27;45338;-70
2022/01/20 01:40:07;;;;;;;;;18.00;16.00;;;;;8.31;69.25;102458.41;5073606;27;45673;-71
2022/01/20 01:42:54;;;;;;;;;16.67;13.67;;;;;8.26;69.02;102449.88;5073538;27;45840;-71
2022/01/20 01:45:28;;;;;;;;;17.00;16.00;;;;;8.29;68.90;102457.63;5073261;27;45339;-70
2022/01/20 01:47:55;;;;;;;;;18.33;13.67;;;;;8.23;69.09;102459.69;5089305;27;45604;-70
2022/01/20 01:50:21;;;;;;;;;15.67;14.33;;;;;8.28;68.91;102474.47;5073267;27;45677;-71
2022/01/20 01:52:46;;;;;;;;;17.33;15.00;;;;;7.78;69.26;102396.03;5073460;27;45326;-70
2022/01/20 01:55:12;;;;;;;;;8.00;6.00;;;;;8.22;69.26;102476.53;5073677;27;45288;-70
2022/01/20 01:57:37;;;;;;;;;15.33;15.33;;;;;8.21;68.93;102484.56;5089437;27;45603;-70
2022/01/20 02:00:09;;;;;;;;;12.67;12.67;;;;;8.30;69.40;102502.59;5072046;28;47555;-71
2022/01/20 02:02:36;;;;;;;;;15.00;13.67;;;;;8.31;68.83;102495.50;5073242;27;45509;-70
2022/01/20 02:05:04;;;;;;;;;18.67;15.67;;;;;8.22;69.06;102497.72;5073307;28;45434;-70
2022/01/20 02:21:05;;;;;;;;;14.67;14.00;;;;;8.22;68.36;102523.38;5093442;27;45795;-69
2022/01/20 02:23:31;;;;;;;;;11.00;11.00;;;;;8.17;67.86;102505.06;5074862;27;45488;-70
2022/01/20 02:25:56;;;;;;;;;11.67;9.67;;;;;8.15;68.05;102496.34;5092231;27;45231;-70
2022/01/20 02:28:22;;;;;;;;;16.33;12.67;;;;;7.63;67.60;102419.81;5075334;27;45655;-70
2022/01/20 02:30:47;;;;;;;;;16.67;14.33;;;;;7.75;67.92;102449.16;5079746;27;47822;-70
2022/01/20 02:33:16;;;;;;;;;17.33;12.67;;;;;8.11;67.55;102525.75;5061518;28;45318;-69
2022/01/20 02:35:50;;;;;;;;;12.33;12.33;;;;;7.70;68.03;102464.47;5079466;28;45443;-72
2022/01/20 02:38:30;;;;;;;;;15.00;12.33;;;;;7.34;67.49;102409.91;5061357;28;45425;-70
2022/01/20 02:46:24;;;;;;;;;13.67;11.33;;;;;8.03;67.47;102523.53;5079546;28;45268;-70
2022/01/20 02:48:49;;;;;;;;;13.33;13.00;;;;;7.70;67.45;102467.09;5078424;28;45395;-70
2022/01/20 02:51:15;;;;;;;;;12.33;12.33;;;;;7.96;67.37;102516.84;5079286;28;45735;-70
2022/01/20 02:53:40;;;;;;;;;14.00;12.33;;;;;7.85;67.67;102484.81;5079185;28;45395;-69
2022/01/20 02:56:06;;;;;;;;;10.00;10.00;;;;;7.94;67.29;102492.25;5065218;28;45330;-72
2022/01/20 02:58:31;;;;;;;;;14.33;12.33;;;;;7.98;66.80;102508.81;5079617;28;45316;-71
2022/01/20 03:00:58;;;;;;;;;14.67;11.33;;;;;7.98;67.17;102495.56;5060943;28;47799;-69
2022/01/20 03:03:24;;;;;;;;;12.33;12.00;;;;;7.94;66.81;102500.19;5079229;28;45299;-70
2022/01/20 03:05:50;;;;;;;;;13.33;11.67;;;;;7.78;66.47;102478.13;5061000;28;45507;-69
2022/01/20 03:08:15;;;;;;;;;10.33;8.33;;;;;7.91;66.75;102509.16;5079121;28;45467;-70
2022/01/20 03:10:41;;;;;;;;;10.33;7.33;;;;;7.86;66.17;102494.47;5060889;28;48628;-70
2022/01/20 03:13:06;;;;;;;;;12.00;12.00;;;;;7.63;66.41;102456.84;5079054;28;45390;-70
2022/01/20 03:15:34;;;;;;;;;11.00;8.33;;;;;7.92;65.56;102505.56;5060735;28;45445;-70
2022/01/20 03:18:00;;;;;;;;;10.67;10.33;;;;;7.79;65.86;102499.22;5079148;28;45254;-71
2022/01/20 03:20:26;;;;;;;;;12.67;9.67;;;;;7.85;65.41;102511.28;5077619;28;47155;-71
2022/01/20 03:22:51;;;;;;;;;8.67;5.00;;;;;7.90;65.20;102519.84;5078690;28;45206;-70
2022/01/20 03:25:17;;;;;;;;;14.67;6.67;;;;;7.69;64.87;102505.97;5078720;28;45221;-71
2022/01/20 03:27:42;;;;;;;;;11.00;11.00;;;;;7.69;65.11;102513.03;5079308;28;45596;-70
2022/01/20 03:30:08;;;;;;;;;11.00;11.00;;;;;7.72;64.92;102518.19;5060253;28;48000;-69
2022/01/20 03:32:34;;;;;;;;;12.00;7.67;;;;;7.79;65.20;102538.06;5078861;28;45230;-69
2022/01/20 03:35:00;;;;;;;;;10.00;8.67;;;;;7.62;64.43;102505.44;5078990;28;45371;-71
2022/01/20 03:37:25;;;;;;;;;11.00;10.00;;;;;7.80;64.50;102532.69;5079032;27;45533;-72
2022/01/20 03:39:50;;;;;;;;;5.67;5.67;;;;;7.82;64.51;102536.16;5078572;28;45543;-70
2022/01/20 03:42:16;;;;;;;;;7.67;5.33;;;;;7.86;65.03;102550.06;5077501;28;45322;-70
2022/01/20 03:44:41;;;;;;;;;10.00;8.50;;;;;7.31;64.53;102463.00;5078683;28;45542;-70
2022/01/20 03:47:08;;;;;;;;;6.33;6.33;;;;;7.87;64.65;102549.13;5078797;28;45418;-71
2022/01/20 03:49:50;;;;;;;;;11.00;9.67;;;;;7.90;65.12;102536.56;5060223;28;48736;-71
2022/01/20 03:52:15;;;;;;;;;12.67;8.00;;;;;7.90;64.91;102533.94;5078446;28;45386;-70
2022/01/20 03:54:40;;;;;;;;;8.33;6.67;;;;;7.92;65.00;102545.28;5078324;28;45304;-70
2022/01/20 03:57:06;;;;;;;;;7.33;7.00;;;;;7.76;64.88;102509.13;5078569;28;45371;-69
2022/01/20 03:59:31;;;;;;;;;10.67;10.67;;;;;7.91;64.61;102548.03;5078152;28;46402;-70
2022/01/20 04:01:57;;;;;;;;;11.67;10.00;;;;;7.79;64.71;102527.50;5078334;28;45335;-70
2022/01/20 04:04:22;;;;;;;;;5.00;2.00;;;;;7.76;64.89;102535.59;5078314;28;45447;-70
2022/01/20 04:06:47;;;;;;;;;9.33;7.00;;;;;5.71;65.00;102186.78;5060261;28;45580;-70
2022/01/20 04:09:13;;;;;;;;;9.33;7.00;;;;;7.79;64.98;102541.56;5077053;28;48378;-71
2022/01/20 04:11:39;;;;;;;;;7.67;6.00;;;;;7.78;64.85;102555.75;5078295;28;45511;-70
2022/01/20 04:14:04;;;;;;;;;9.00;9.00;;;;;7.85;65.27;102567.75;5078477;28;45340;-70
2022/01/20 04:16:53;;;;;;;;;7.33;6.33;;;;;7.31;65.20;102477.09;5078379;28;45343;-70
2022/01/20 04:19:19;;;;;;;;;11.00;6.67;;;;;7.80;65.16;102564.47;5078000;28;46558;-70
2022/01/20 04:21:44;;;;;;;;;11.33;10.67;;;;;7.80;65.14;102569.75;5077775;28;45449;-71
2022/01/20 04:24:10;;;;;;;;;10.00;10.00;;;;;7.28;65.55;102487.84;5059302;28;45478;-70
2022/01/20 04:26:38;;;;;;;;;15.00;9.67;;;;;7.76;65.05;102577.97;5059651;28;45306;-69
2022/01/20 04:29:06;;;;;;;;;7.33;6.33;;;;;7.30;64.62;102490.41;5076565;28;47874;-70
2022/01/20 04:31:32;;;;;;;;;13.00;9.67;;;;;7.71;65.06;102556.19;5078211;28;45287;-70
2022/01/20 04:33:58;;;;;;;;;11.00;9.33;;;;;7.76;64.68;102562.94;5059614;28;45462;-70
2022/01/20 04:36:25;;;;;;;;;10.67;9.33;;;;;7.27;64.59;102485.28;5078185;28;45242;-70
2022/01/20 04:38:50;;;;;;;;;12.67;8.67;;;;;7.63;65.17;102556.59;5077471;28;46554;-70
2022/01/20 04:41:16;;;;;;;;;8.33;8.33;;;;;7.62;64.97;102552.25;5077547;28;45466;-70
2022/01/20 04:43:41;;;;;;;;;9.33;5.33;;;;;7.61;64.80;102543.44;5078032;28;45521;-70
2022/01/20 04:46:16;;;;;;;;;9.67;9.00;;;;;7.19;64.53;102490.09;5078424;28;45341;-70
2022/01/20 04:48:49;;;;;;;;;8.33;8.33;;;;;7.34;64.82;102528.97;5059164;28;47953;-70
2022/01/20 04:59:26;;;;;;;;;10.00;6.00;;;;;7.67;65.07;102600.50;5077181;28;46663;-70
2022/01/20 05:01:52;;;;;;;;;7.33;6.00;;;;;7.56;65.05;102577.22;5077128;28;45540;-70
2022/01/20 05:04:17;;;;;;;;;7.33;5.00;;;;;7.68;64.58;102593.41;5076167;28;45395;-71
2022/01/20 05:06:44;;;;;;;;;7.67;7.67;;;;;7.70;65.10;102594.19;5059530;28;45487;-70
2022/01/20 05:09:17;;;;;;;;;10.67;9.67;;;;;7.69;64.90;102587.16;5076967;28;46395;-70
2022/01/20 05:11:47;;;;;;;;;9.00;7.33;;;;;7.65;64.53;102581.19;5075849;27;45508;-71
2022/01/20 05:14:12;;;;;;;;;13.67;8.67;;;;;7.62;64.95;102576.91;5077091;28;45332;-70
2022/01/20 05:16:37;;;;;;;;;12.00;10.00;;;;;7.54;64.41;102570.28;5076014;28;45600;-70
2022/01/20 05:19:03;;;;;;;;;7.67;7.67;;;;;7.61;64.84;102580.50;5076566;28;45624;-70
2022/01/20 05:21:28;;;;;;;;;6.33;5.00;;;;;7.55;64.91;102572.00;5077224;28;45541;-69
2022/01/20 05:23:53;;;;;;;;;11.67;8.67;;;;;7.54;64.39;102563.22;5076801;28;45537;-70
2022/01/20 05:26:19;;;;;;;;;11.00;8.67;;;;;6.93;64.24;102459.69;5077164;28;45461;-69
2022/01/20 05:28:44;;;;;;;;;8.00;7.33;;;;;7.61;64.40;102583.16;5076779;28;46203;-70
2022/01/20 05:31:09;;;;;;;;;8.67;7.33;;;;;7.39;64.23;102544.63;5075565;28;45909;-71
2022/01/20 05:33:35;;;;;;;;;10.33;6.67;;;;;7.22;64.35;102524.34;5058442;28;45354;-70
2022/01/20 05:36:01;;;;;;;;;8.00;8.00;;;;;7.54;64.09;102583.53;5077312;28;45347;-70
2022/01/20 05:38:27;;;;;;;;;6.00;5.33;;;;;7.51;63.77;102579.25;5058529;28;48753;-70
2022/01/20 05:40:52;;;;;;;;;10.33;7.67;;;;;7.60;64.16;102593.78;5075398;28;45252;-70
2022/01/20 05:43:18;;;;;;;;;10.00;5.33;;;;;7.44;64.08;102571.72;5077171;28;45441;-71
2022/01/20 05:45:43;;;;;;;;;12.67;9.00;;;;;7.06;63.73;102515.47;5077099;28;45169;-71
2022/01/20 05:48:21;;;;;;;;;6.00;6.00;;;;;7.55;63.76;102609.06;5076558;28;46307;-71
2022/01/20 05:50:46;;;;;;;;;6.00;5.00;;;;;6.97;63.69;102515.00;5076982;28;45603;-73
2022/01/20 05:53:12;;;;;;;;;5.33;5.33;;;;;7.55;63.43;102609.91;5076680;28;45309;-70
2022/01/20 05:55:38;;;;;;;;;6.00;6.00;;;;;7.57;64.12;102609.81;5076365;28;45572;-70
2022/01/20 05:58:06;;;;;;;;;7.33;5.00;;;;;7.56;63.49;102611.63;5076268;28;45736;-70
2022/01/20 06:00:36;;;;;;;;;9.33;7.00;;;;;6.89;63.64;102506.59;5076924;28;45383;-71
2022/01/20 06:05:46;;;;;;;;;5.00;5.00;;;;;7.44;63.63;102598.19;5079401;28;45257;-72
2022/01/20 06:08:12;;;;;;;;;7.67;4.67;;;;;7.52;63.83;102625.94;5078680;28;47961;-69
2022/01/20 06:10:37;;;;;;;;;7.00;6.00;;;;;7.46;63.57;102620.13;5079885;28;45300;-70
2022/01/20 06:13:04;;;;;;;;;12.67;8.33;;;;;7.49;63.53;102634.06;5080118;28;45328;-71
2022/01/20 06:15:29;;;;;;;;;6.33;6.33;;;;;7.43;63.85;102617.63;5080615;28;45624;-70
2022/01/20 06:17:55;;;;;;;;;6.33;6.33;;;;;7.48;63.58;102632.34;5079484;28;46294;-71
2022/01/20 06:20:21;;;;;;;;;5.00;5.00;;;;;7.28;63.25;102592.81;5061321;28;45942;-72
2022/01/20 06:22:46;;;;;;;;;5.67;5.67;;;;;7.41;63.19;102619.47;5079823;28;45944;-71
2022/01/20 06:25:12;;;;;;;;;9.00;7.67;;;;;7.41;63.33;102623.00;5079806;28;45434;-72
2022/01/20 06:27:37;;;;;;;;;10.00;5.00;;;;;7.35;63.28;102615.38;5079412;28;46105;-70
2022/01/20 06:30:05;;;;;;;;;6.00;5.67;;;;;7.41;63.00;102630.94;5078019;28;45473;-73
2022/01/20 06:32:32;;;;;;;;;4.33;4.33;;;;;6.89;63.48;102554.19;5058572;28;45386;-70
2022/01/20 06:34:57;;;;;;;;;8.67;6.67;;;;;7.45;63.05;102635.16;5078493;28;45509;-72
2022/01/20 06:37:22;;;;;;;;;6.67;4.00;;;;;7.39;63.68;102637.22;5074313;28;46972;-70
2022/01/20 06:39:48;;;;;;;;;8.67;5.67;;;;;7.39;62.91;102646.03;5077823;28;45352;-73
2022/01/20 06:42:13;;;;;;;;;9.00;5.00;;;;;7.40;63.33;102650.38;5078604;28;45501;-70
2022/01/20 06:44:39;;;;;;;;;4.67;4.00;;;;;7.29;63.36;102632.41;5076731;28;45438;-71
2022/01/20 06:47:04;;;;;;;;;10.00;6.67;;;;;7.29;63.16;102644.78;5078777;28;45626;-74
2022/01/20 06:49:30;;;;;;;;;9.33;4.67;;;;;7.22;63.17;102635.44;5053959;28;45469;-72
2022/01/20 06:51:55;;;;;;;;;6.00;5.00;;;;;7.20;63.35;102637.28;5067249;28;45282;-71
2022/01/20 06:54:21;;;;;;;;;7.00;7.00;;;;;7.33;63.34;102659.56;5079256;28;45194;-72
2022/01/20 06:56:47;;;;;;;;;7.00;6.67;;;;;7.29;63.28;102652.72;5076948;28;47050;-71
2022/01/20 06:59:15;;;;;;;;;13.00;9.00;;;;;7.27;63.23;102660.72;5060825;28;46481;-72
2022/01/20 07:01:42;;;;;;;;;6.00;4.00;;;;;6.65;63.49;102560.69;5078728;28;45458;-72
2022/01/20 07:04:09;;;;;;;;;7.33;6.00;;;;;7.20;62.90;102674.31;5079077;28;45588;-70
2022/01/20 07:06:35;;;;;;;;;5.00;4.00;;;;;7.22;63.45;102685.72;5073270;28;48400;-72
2022/01/20 07:09:00;;;;;;;;;5.00;5.00;;;;;7.19;63.37;102694.63;5040399;28;45553;-72
2022/01/20 07:11:25;;;;;;;;;4.33;4.33;;;;;7.16;63.73;102693.91;5058957;28;45584;-71
2022/01/20 07:13:51;;;;;;;;;6.67;4.00;;;;;7.11;63.56;102694.16;5067970;28;45634;-72
2022/01/20 07:16:17;;;;;;;;;7.67;6.00;;;;;6.72;63.24;102622.88;5056371;28;48624;-72
2022/01/20 07:18:42;;;;;;;;;10.00;8.00;;;;;7.18;63.06;102719.38;5076234;28;45747;-65
2022/01/20 07:21:08;;;;;;;;;8.00;6.00;;;;;7.16;63.69;102717.72;5060506;28;45448;-72
2022/01/20 07:23:33;;;;;;;;;7.00;5.33;;;;;6.88;63.87;102684.69;5078825;28;45487;-70
2022/01/20 07:25:59;;;;;;;;;6.00;6.00;;;;;7.14;63.99;102733.69;5076955;28;47679;-71
2022/01/20 07:28:24;;;;;;;;;9.00;5.00;;;;;7.07;63.46;102720.81;5060355;28;45328;-71
2022/01/20 07:30:49;;;;;;;;;6.00;5.00;;;;;6.96;63.71;102708.97;5060409;28;45247;-71
2022/01/20 07:33:15;;;;;;;;;8.33;6.33;;;;;7.10;64.03;102740.06;5079148;28;45469;-72
2022/01/20 07:35:41;;;;;;;;;5.00;5.00;;;;;6.97;63.75;102720.38;5060027;28;48307;-73
2022/01/20 07:38:06;;;;;;;;;12.33;5.67;;;;;6.97;64.03;102718.59;5078553;28;45480;-71
2022/01/20 07:40:33;;;;;;;;;7.00;4.00;;;;;7.01;64.36;102732.56;5078213;28;46920;-73
2022/01/20 07:42:59;;;;;;;;;10.00;8.67;;;;;6.96;65.04;102723.97;5077688;28;45258;-72
2022/01/20 07:45:26;;;;;;;;;7.00;6.00;;;;;6.65;64.63;102661.13;5075243;28;48433;-72
2022/01/20 07:47:51;;;;;;;;;7.33;6.00;;;;;7.14;64.29;102730.19;5077900;28;45241;-73
2022/01/20 07:50:17;;;;;;;;;9.33;7.33;;;;;6.96;64.63;102690.44;5078352;28;45303;-72
2022/01/20 07:52:42;;;;;;;;;12.00;9.67;;;;;7.04;64.51;102689.25;5078708;28;45462;-72
2022/01/20 07:55:09;;;;;;;;;9.00;5.67;;;;;7.15;63.73;102716.88;5078465;28;45538;-71
2022/01/20 07:57:34;;;;;;;;;8.33;6.00;;;;;7.23;63.91;102738.53;5076082;28;45470;-72
2022/01/20 08:00:00;;;;;;;;;10.00;8.33;;;;;7.14;64.40;102727.53;5059430;28;45470;-70
2022/01/20 08:02:26;;;;;;;;;10.00;9.00;;;;;7.22;64.73;102735.97;5078617;28;45383;-70
2022/01/20 08:04:51;;;;;;;;;6.67;6.00;;;;;7.13;64.85;102720.53;5076590;28;48870;-73
2022/01/20 08:07:18;;;;;;;;;5.67;5.67;;;;;7.25;64.43;102723.44;5077582;28;45362;-71
2022/01/20 08:09:45;;;;;;;;;12.00;10.67;;;;;7.35;64.98;102726.50;5059784;28;45477;-71
2022/01/20 08:12:11;;;;;;;;;17.33;12.33;;;;;7.16;64.08;102678.06;5077985;27;45353;-71
2022/01/20 08:14:36;;;;;;;;;9.33;8.00;;;;;7.62;64.31;102735.75;5076679;28;47229;-71
2022/01/20 08:17:02;;;;;;;;;11.00;9.00;;;;;7.68;63.81;102734.56;5076426;28;46008;-73
2022/01/20 08:19:27;;;;;;;;;7.00;6.33;;;;;7.72;63.51;102735.28;5077770;28;45526;-72
2022/01/20 08:21:52;;;;;;;;;7.33;7.33;;;;;7.71;62.83;102746.78;5077962;28;45259;-70
2022/01/20 08:24:18;;;;;;;;;9.33;8.00;;;;;7.79;63.45;102752.56;5077365;28;45506;-72
2022/01/20 08:26:43;;;;;;;;;9.00;7.67;;;;;7.79;63.24;102749.91;5058796;28;45483;-72
2022/01/20 08:29:08;;;;;;;;;9.67;9.33;;;;;7.82;63.22;102745.34;5077144;28;45380;-71
2022/01/20 08:31:34;;;;;;;;;5.00;5.00;;;;;7.89;63.41;102744.09;5059680;28;45244;-71
2022/01/20 08:33:59;;;;;;;;;12.33;10.67;;;;;7.93;62.59;102734.19;5076321;28;47294;-71
2022/01/20 08:36:25;;;;;;;;;11.00;8.33;;;;;8.00;62.02;102742.66;5072746;28;45422;-70
2022/01/20 08:38:50;;;;;;;;;12.67;8.67;;;;;7.94;62.46;102730.59;5058165;28;45524;-73
2022/01/20 08:41:16;;;;;;;;;14.00;10.00;;;;;8.04;62.24;102742.44;5057608;28;45345;-71
2022/01/20 08:43:41;;;;;;;;;12.67;11.33;;;;;8.06;62.42;102742.38;5038878;28;46240;-72
2022/01/20 08:46:09;;;;;;;;;18.33;17.33;;;;;8.14;61.91;102746.31;5061678;28;45312;-71
2022/01/20 08:48:36;;;;;;;;;13.00;12.33;;;;;8.29;61.93;102752.63;5059529;28;45620;-71
2022/01/20 08:51:03;;;;;;;;;29.33;28.00;;;;;8.19;61.99;102744.28;5077340;28;45713;-72
2022/01/20 08:53:28;;;;;;;;;10.33;8.67;;;;;8.30;61.80;102762.28;5076897;28;45431;-70
2022/01/20 08:55:53;;;;;;;;;19.00;17.67;;;;;8.18;61.62;102744.38;5073872;28;45518;-71
2022/01/20 08:58:19;;;;;;;;;8.67;8.67;;;;;7.37;61.81;102613.50;5076638;28;45521;-75
2022/01/20 09:00:45;;;;;;;;;12.67;11.67;;;;;8.26;61.53;102731.59;5077313;28;45246;-73
2022/01/20 09:03:11;;;;;;;;;13.33;12.33;;;;;8.31;61.66;102724.25;5076687;28;45765;-72
2022/01/20 09:05:37;;;;;;;;;24.33;15.00;;;;;7.99;61.04;102659.69;5076462;28;45391;-71
2022/01/20 09:08:04;;;;;;;;;12.00;8.33;;;;;7.98;60.67;102665.94;5058526;28;45512;-73
2022/01/20 09:10:37;;;;;;;;;15.00;12.67;;;;;8.36;61.00;102740.78;5059279;28;45676;-72
2022/01/20 09:15:46;;;;;;;;;23.67;22.33;;;;;8.64;61.00;102761.41;5077273;28;45444;-74
2022/01/20 09:18:12;;;;;;;;;19.67;15.00;;;;;8.40;61.11;102707.88;5075718;28;45497;-73
2022/01/20 09:20:38;;;;;;;;;14.33;10.00;;;;;8.70;60.44;102753.13;5059080;28;45630;-72
2022/01/20 09:23:05;;;;;;;;;22.67;21.00;;;;;8.67;60.63;102763.88;5058576;28;47908;-73
2022/01/20 09:25:31;;;;;;;;;14.00;12.67;;;;;8.68;60.89;102749.69;5076650;28;45287;-72
2022/01/20 09:27:57;;;;;;;;;17.33;16.67;;;;;8.75;60.73;102772.28;5058230;28;45202;-73
2022/01/20 09:30:24;;;;;;;;;14.33;11.33;;;;;8.79;60.32;102789.72;5077241;28;45419;-72
2022/01/20 09:32:59;;;;;;;;;32.00;27.00;;;;;8.83;60.45;102795.75;5076619;28;45291;-72
2022/01/20 09:35:32;;;;;;;;;19.67;19.33;;;;;8.88;60.87;102808.75;5058607;28;45515;-73
2022/01/20 09:38:01;;;;;;;;;12.67;12.33;;;;;8.89;60.47;102795.41;5063790;28;45316;-74
2022/01/20 09:40:29;;;;;;;;;27.33;26.33;;;;;9.05;60.51;102812.22;5079090;28;45460;-74
2022/01/20 09:42:55;;;;;;;;;21.00;15.67;;;;;8.97;60.01;102784.38;5062175;28;46256;-77
2022/01/20 09:45:21;;;;;;;;;16.00;14.67;;;;;9.08;60.60;102795.28;5047140;28;45360;-78
2022/01/20 09:47:46;;;;;;;;;17.00;16.00;;;;;8.62;60.14;102702.31;5065961;28;45422;-77
2022/01/20 09:50:19;;;;;;;;;13.33;11.00;;;;;9.14;59.92;102789.63;5044072;28;45511;-76
2022/01/20 09:52:50;;;;;;;;;17.33;13.00;;;;;9.35;59.74;102793.72;5059800;28;46411;-75
2022/01/20 09:55:18;;;;;;;;;15.00;8.33;;;;;9.39;59.36;102779.34;5058858;28;45622;-77
2022/01/20 09:57:43;;;;;;;;;15.00;14.00;;;;;9.37;59.26;102775.06;5060510;28;45664;-78
2022/01/20 10:00:12;;;;;;;;;19.33;14.33;;;;;9.42;59.25;102779.19;5074963;28;45486;-74
2022/01/20 10:02:56;;;;;;;;;16.67;15.33;;;;;9.53;59.14;102789.19;5062325;28;47987;-77
2022/01/20 10:05:35;;;;;;;;;13.33;13.00;;;;;9.61;59.08;102794.94;5080828;28;45328;-73
2022/01/20 10:08:08;;;;;;;;;17.33;14.00;;;;;9.62;58.82;102793.97;5062544;28;45510;-76
2022/01/20 10:10:52;;;;;;;;;16.33;15.00;;;;;9.61;58.66;102800.25;5063186;28;45698;-75
2022/01/20 10:13:21;;;;;;;;;19.00;14.00;;;;;9.62;59.33;102785.16;5061972;28;47194;-76
2022/01/20 10:16:06;;;;;;;;;13.33;13.33;;;;;9.88;58.54;102813.72;5079266;28;45542;-75
2022/01/20 10:18:34;;;;;;;;;15.67;13.00;;;;;9.98;58.51;102809.56;5079580;28;45427;-76
2022/01/20 10:21:05;;;;;;;;;18.67;14.00;;;;;9.71;58.10;102781.97;5083024;28;45388;-75
2022/01/20 10:23:32;;;;;;;;;11.67;11.67;;;;;9.92;57.69;102833.84;5065794;28;46700;-76
2022/01/20 10:26:13;;;;;;;;;20.67;12.33;;;;;9.92;58.32;102825.03;5061494;28;45485;-78
2022/01/20 10:28:50;;;;;;;;;18.33;13.00;;;;;9.98;57.46;102840.59;5073236;27;45612;-77
2022/01/20 10:31:19;;;;;;;;;7.00;5.33;;;;;9.84;57.23;102812.19;5073239;28;45371;-75
2022/01/20 10:33:46;;;;;;;;;11.00;10.33;;;;;9.89;57.05;102825.22;5056288;28;47674;-76
2022/01/20 10:36:12;;;;;;;;;9.67;8.67;;;;;9.97;57.08;102842.41;5057261;28;45503;-77
2022/01/20 10:38:58;;;;;;;;;11.00;10.67;;;;;9.78;57.20;102833.78;5040417;28;45472;-75
2022/01/20 10:41:28;;;;;;;;;11.33;8.00;;;;;9.80;57.44;102847.81;5075441;28;45953;-75
2022/01/20 10:44:03;;;;;;;;;12.00;8.33;;;;;9.56;57.60;102839.44;5060684;28;46732;-75
2022/01/20 10:46:41;;;;;;;;;21.67;20.33;;;;;9.44;57.80;102846.31;5060087;28;45972;-75
2022/01/20 10:49:07;;;;;;;;;21.33;16.00;;;;;9.36;58.55;102826.44;5079263;28;45377;-76
2022/01/20 10:51:32;;;;;;;;;17.00;14.33;;;;;9.49;58.07;102842.56;5061874;28;45474;-76
2022/01/20 10:53:58;;;;;;;;;29.67;18.33;;;;;9.52;58.50;102837.06;5063341;28;47945;-77
2022/01/20 10:56:24;;;;;;;;;16.67;12.67;;;;;9.82;58.31;102847.78;5081166;28;45321;-77
2022/01/20 10:58:51;;;;;;;;;16.00;13.00;;;;;9.78;58.03;102820.50;5082043;28;45387;-75
2022/01/20 11:01:17;;;;;;;;;17.67;14.33;;;;;9.88;57.28;102819.03;5078989;28;45479;-76
2022/01/20 11:03:42;;;;;;;;;17.67;17.67;;;;;10.00;56.98;102834.25;5079583;28;45316;-75
2022/01/20 11:06:08;;;;;;;;;13.67;11.00;;;;;9.86;56.90;102831.56;5079079;28;45407;-79
2022/01/20 11:08:38;;;;;;;;;14.00;12.00;;;;;9.63;58.03;102829.38;5079979;28;45281;-75
2022/01/20 11:11:04;;;;;;;;;15.33;14.00;;;;;9.64;57.72;102833.72;5061811;28;45631;-75
2022/01/20 11:13:30;;;;;;;;;11.67;11.00;;;;;9.53;58.05;102844.94;5077721;28;46938;-72
2022/01/20 11:15:55;;;;;;;;;14.33;12.00;;;;;9.30;58.33;102803.75;5077652;28;45282;-77
2022/01/20 11:18:27;;;;;;;;;18.00;16.33;;;;;8.92;58.40;102746.63;5078470;28;45534;-76
2022/01/20 11:20:54;;;;;;;;;14.67;13.00;;;;;9.13;59.20;102838.31;5079628;28;45381;-76
2022/01/20 11:23:19;;;;;;;;;16.67;11.00;;;;;9.10;59.17;102835.84;5079569;27;45811;-77
2022/01/20 11:25:45;;;;;;;;;12.33;10.00;;;;;9.10;59.31;102825.22;5077683;28;46193;-76
2022/01/20 11:28:19;;;;;;;;;18.33;14.00;;;;;9.24;59.54;102843.06;5060610;28;45228;-73
2022/01/20 11:31:04;;;;;;;;;15.00;10.33;;;;;8.84;59.16;102755.88;5079787;28;45347;-76
2022/01/20 11:33:34;;;;;;;;;19.00;17.33;;;;;9.33;59.16;102816.84;5081055;28;46044;-76
2022/01/20 11:36:00;;;;;;;;;10.67;10.00;;;;;9.38;58.54;102830.72;5077794;28;45949;-76
2022/01/20 11:38:37;;;;;;;;;9.67;8.00;;;;;9.09;58.81;102818.22;5078975;28;45455;-77
2022/01/20 11:41:03;;;;;;;;;11.00;10.33;;;;;9.22;59.16;102819.25;5061361;28;45495;-76
2022/01/20 11:43:41;;;;;;;;;9.33;7.33;;;;;9.29;58.66;102815.31;5077341;28;45831;-76
2022/01/20 11:46:13;;;;;;;;;5.00;2.67;;;;;9.33;58.42;102821.31;5060048;28;45465;-75
2022/01/20 11:48:58;;;;;;;;;12.00;8.00;;;;;9.29;58.37;102814.47;5076888;28;45328;-81
2022/01/20 11:51:26;;;;;;;;;12.67;10.67;;;;;9.38;57.80;102829.84;5061360;28;45635;-77
2022/01/20 11:54:00;;;;;;;;;8.67;8.00;;;;;9.19;57.80;102832.66;5075599;28;46967;-75
2022/01/20 11:56:31;;;;;;;;;11.00;8.67;;;;;9.01;57.97;102821.28;5078877;28;45296;-77
2022/01/20 11:58:57;;;;;;;;;8.00;7.00;;;;;8.48;58.26;102745.44;5065210;28;45481;-77
2022/01/20 12:01:22;;;;;;;;;13.00;9.00;;;;;8.90;57.77;102818.34;5061155;28;45399;-76
2022/01/20 12:03:52;;;;;;;;;12.00;10.50;;;;;8.95;58.44;102834.00;5077339;28;47798;-76
2022/01/20 12:06:23;;;;;;;;;9.67;8.33;;;;;8.99;57.83;102812.53;5079523;28;45277;-76
2022/01/20 12:08:57;;;;;;;;;12.00;7.33;;;;;8.98;58.12;102815.25;5084419;28;45308;-78
2022/01/20 12:11:40;;;;;;;;;10.00;8.00;;;;;9.25;57.82;102827.06;5064839;28;45557;-75
2022/01/20 12:14:08;;;;;;;;;7.00;6.33;;;;;9.25;56.95;102836.81;5073221;28;47500;-78
2022/01/20 12:16:35;;;;;;;;;17.00;16.00;;;;;9.12;57.63;102833.97;5056734;28;45430;-77
2022/01/20 12:19:04;;;;;;;;;16.00;16.00;;;;;9.20;57.58;102809.63;5050098;28;45408;-75
2022/01/20 12:21:31;;;;;;;;;13.67;13.33;;;;;9.33;56.23;102838.09;5057013;28;45574;-74
2022/01/20 12:23:58;;;;;;;;;7.00;6.00;;;;;9.21;55.94;102828.16;5057010;28;47606;-75
2022/01/20 12:26:24;;;;;;;;;3.67;3.67;;;;;9.09;55.98;102807.59;5058379;28;45432;-74
2022/01/20 12:29:04;;;;;;;;;7.00;6.00;;;;;8.95;55.70;102804.81;5058419;28;45439;-77
2022/01/20 12:31:31;;;;;;;;;7.00;6.00;;;;;8.78;55.94;102819.00;5057030;28;45434;-74
2022/01/20 12:33:57;;;;;;;;;5.33;5.00;;;;;8.70;56.33;102845.94;5039923;28;47825;-73
2022/01/20 12:36:25;;;;;;;;;9.00;8.00;;;;;8.57;57.10;102841.34;5058437;28;45464;-77
2022/01/20 12:38:52;;;;;;;;;6.67;5.00;;;;;8.48;57.30;102817.03;5058560;28;45424;-77
2022/01/20 12:41:23;;;;;;;;;5.67;4.67;;;;;8.46;57.80;102788.88;5058525;28;45299;-75
2022/01/20 12:43:55;;;;;;;;;11.00;8.00;;;;;8.84;57.51;102834.59;5048173;28;46924;-74